createdAt,value
2023-12-12T00:00:02.585Z,10.73
2023-12-12T00:02:31.666Z,10.23
2023-12-12T00:05:00.344Z,10.17
2023-12-12T00:07:28.189Z,9.90
2023-12-12T00:09:56.085Z,9.38
2023-12-12T00:12:23.769Z,9.32
2023-12-12T00:14:51.461Z,9.90
2023-12-12T00:17:19.418Z,10.47
2023-12-12T00:19:49.047Z,10.25
2023-12-12T00:22:16.867Z,10.19
2023-12-12T00:24:44.825Z,10.14
2023-12-12T00:27:12.509Z,10.20
2023-12-12T00:29:41.958Z,10.35
2023-12-12T00:32:10.389Z,10.48
2023-12-12T00:34:38.491Z,10.55
2023-12-12T00:37:07.757Z,10.04
2023-12-12T00:39:38.503Z,10.11
2023-12-12T00:42:06.737Z,9.66
2023-12-12T00:44:36.044Z,9.90
2023-12-12T00:47:04.027Z,9.50
2023-12-12T00:49:31.827Z,9.49
2023-12-12T00:51:59.562Z,9.29
2023-12-12T00:54:29.236Z,9.83
2023-12-12T00:56:56.907Z,9.97
2023-12-12T00:59:24.668Z,9.53
2023-12-12T01:01:52.332Z,9.48
2023-12-12T01:04:20.303Z,9.80
2023-12-12T01:06:48.215Z,9.86
2023-12-12T01:09:18.839Z,9.44
2023-12-12T01:11:48.150Z,9.66
2023-12-12T01:14:16.104Z,9.64
2023-12-12T01:16:44.394Z,10.03
2023-12-12T01:19:12.393Z,10.27
2023-12-12T01:21:40.265Z,10.09
2023-12-12T01:24:08.357Z,9.78
2023-12-12T01:26:36.065Z,10.56
2023-12-12T01:29:05.435Z,10.33
2023-12-12T01:31:33.373Z,10.44
2023-12-12T01:34:03.825Z,10.09
2023-12-12T01:36:31.604Z,10.54
2023-12-12T01:38:59.368Z,10.16
2023-12-12T01:41:27.574Z,9.91
2023-12-12T01:43:55.602Z,9.81
2023-12-12T01:46:25.096Z,10.18
2023-12-12T01:48:53.122Z,10.28
2023-12-12T01:51:22.101Z,10.13
2023-12-12T01:53:50.821Z,10.19
2023-12-12T01:56:18.820Z,10.24
2023-12-12T01:58:49.528Z,10.62
2023-12-12T02:01:17.744Z,10.35
2023-12-12T02:03:47.278Z,10.11
2023-12-12T02:06:16.749Z,10.49
2023-12-12T02:08:44.833Z,10.14
2023-12-12T02:11:12.843Z,9.65
2023-12-12T02:13:40.537Z,10.42
2023-12-12T02:16:08.761Z,10.05
2023-12-12T02:18:36.719Z,10.19
2023-12-12T02:21:06.377Z,10.39
2023-12-12T02:23:35.646Z,10.56
2023-12-12T02:26:04.594Z,10.37
2023-12-12T02:28:32.392Z,9.95
2023-12-12T02:31:00.954Z,10.08
2023-12-12T02:33:28.759Z,10.03
2023-12-12T02:35:56.542Z,10.16
2023-12-12T02:38:24.238Z,10.12
2023-12-12T02:40:53.526Z,9.80
2023-12-12T02:43:21.313Z,9.89
2023-12-12T02:45:49.221Z,10.01
2023-12-12T02:48:18.398Z,10.30
2023-12-12T02:50:48.355Z,10.70
2023-12-12T02:53:16.191Z,10.13
2023-12-12T02:55:43.898Z,9.79
2023-12-12T02:58:13.175Z,10.04
2023-12-12T03:00:40.985Z,10.24
2023-12-12T03:03:08.832Z,10.00
2023-12-12T03:05:36.627Z,10.07
2023-12-12T03:08:04.426Z,10.06
2023-12-12T03:10:32.152Z,10.18
2023-12-12T03:13:00.098Z,10.00
2023-12-12T03:15:29.276Z,9.32
2023-12-12T03:17:57.159Z,9.68
2023-12-12T03:20:24.878Z,9.42
2023-12-12T03:22:53.044Z,9.59
2023-12-12T03:25:20.890Z,10.10
2023-12-12T03:27:48.756Z,9.78
2023-12-12T03:30:16.688Z,9.74
2023-12-12T03:32:46.251Z,9.51
2023-12-12T03:35:14.124Z,9.93
2023-12-12T03:37:41.829Z,9.72
2023-12-12T03:40:10.248Z,9.75
2023-12-12T03:42:38.231Z,9.80
2023-12-12T03:45:07.539Z,9.59
2023-12-12T03:47:36.193Z,10.09
2023-12-12T03:50:07.196Z,10.21
2023-12-12T03:52:35.244Z,9.91
2023-12-12T03:55:03.219Z,9.76
2023-12-12T03:57:31.562Z,9.96
2023-12-12T03:59:59.673Z,9.92
2023-12-12T04:02:29.983Z,9.46
2023-12-12T04:04:57.743Z,9.81
2023-12-12T04:07:27.005Z,9.86
2023-12-12T04:09:55.454Z,9.51
2023-12-12T04:12:23.303Z,9.75
2023-12-12T04:14:51.139Z,9.48
2023-12-12T04:17:18.837Z,9.79
2023-12-12T04:19:46.525Z,9.83
2023-12-12T04:22:14.272Z,10.20
2023-12-12T04:24:44.054Z,10.23
2023-12-12T04:27:11.975Z,9.87
2023-12-12T04:29:39.806Z,10.07
2023-12-12T04:32:07.738Z,10.20
2023-12-12T04:34:35.901Z,9.75
2023-12-12T04:37:04.890Z,9.80
2023-12-12T04:39:32.796Z,9.24
2023-12-12T04:42:01.898Z,9.72
2023-12-12T04:44:29.530Z,9.28
2023-12-12T04:46:57.239Z,9.20
2023-12-12T04:49:25.130Z,9.41
2023-12-12T04:51:53.027Z,9.83
2023-12-12T04:54:20.872Z,9.69
2023-12-12T04:56:48.740Z,9.86
2023-12-12T04:59:17.978Z,9.86
2023-12-12T05:01:45.892Z,9.68
2023-12-12T05:04:13.847Z,9.65
2023-12-12T05:06:41.558Z,9.87
2023-12-12T05:09:09.651Z,9.89
2023-12-12T05:11:38.132Z,9.71
2023-12-12T05:14:07.531Z,9.62
2023-12-12T05:16:37.238Z,9.67
2023-12-12T05:19:05.375Z,9.54
2023-12-12T05:21:33.252Z,9.81
2023-12-12T05:24:01.797Z,9.82
2023-12-12T05:26:30.141Z,9.72
2023-12-12T05:28:57.853Z,9.78
2023-12-12T05:31:26.011Z,9.56
2023-12-12T05:33:55.660Z,9.56
2023-12-12T05:36:23.393Z,9.80
2023-12-12T05:38:52.527Z,9.64
2023-12-12T05:41:20.213Z,9.66
2023-12-12T05:43:47.866Z,9.50
2023-12-12T05:46:16.061Z,9.72
2023-12-12T05:48:44.065Z,9.67
2023-12-12T05:51:14.996Z,9.50
2023-12-12T05:53:43.153Z,9.06
2023-12-12T05:56:14.150Z,9.08
2023-12-12T05:58:42.528Z,9.36
2023-12-12T06:01:10.751Z,9.42
2023-12-12T06:03:39.161Z,8.98
2023-12-12T06:06:09.585Z,9.55
2023-12-12T06:08:39.384Z,9.15
2023-12-12T06:11:08.730Z,9.58
2023-12-12T06:13:37.320Z,9.28
2023-12-12T06:16:05.927Z,9.34
2023-12-12T06:18:33.759Z,8.96
2023-12-12T06:21:01.798Z,9.34
2023-12-12T06:23:32.004Z,9.40
2023-12-12T06:26:01.926Z,9.40
2023-12-12T06:28:29.898Z,9.31
2023-12-12T06:30:57.769Z,9.27
2023-12-12T06:33:29.221Z,9.51
2023-12-12T06:35:58.384Z,9.50
2023-12-12T06:38:27.038Z,9.53
2023-12-12T06:40:55.509Z,9.54
2023-12-12T06:43:24.863Z,9.63
2023-12-12T06:45:53.763Z,9.41
2023-12-12T06:48:21.822Z,9.33
2023-12-12T06:50:49.879Z,9.72
2023-12-12T06:53:17.712Z,9.19
2023-12-12T06:55:45.590Z,9.16
2023-12-12T06:58:14.480Z,9.46
2023-12-12T07:00:44.110Z,9.51
2023-12-12T07:03:12.426Z,9.37
2023-12-12T07:05:40.608Z,9.64
2023-12-12T07:08:09.113Z,9.52
2023-12-12T07:10:36.977Z,9.74
2023-12-12T07:13:05.373Z,9.19
2023-12-12T07:15:34.764Z,9.72
2023-12-12T07:18:04.154Z,9.64
2023-12-12T07:20:32.051Z,9.29
2023-12-12T07:23:01.035Z,9.69
2023-12-12T07:25:29.064Z,9.47
2023-12-12T07:27:57.704Z,9.38
2023-12-12T07:30:25.602Z,9.78
2023-12-12T07:32:53.507Z,9.58
2023-12-12T07:35:22.765Z,9.50
2023-12-12T07:37:51.245Z,9.76
2023-12-12T07:40:20.184Z,9.40
2023-12-12T07:42:50.091Z,9.61
2023-12-12T07:45:19.709Z,9.72
2023-12-12T07:47:48.413Z,9.46
2023-12-12T07:50:18.909Z,9.29
2023-12-12T07:52:49.965Z,9.53
2023-12-12T07:55:19.917Z,9.51
2023-12-12T07:57:47.647Z,9.69
2023-12-12T08:00:16.030Z,9.34
2023-12-12T08:02:44.130Z,9.09
2023-12-12T08:05:12.372Z,9.32
2023-12-12T08:07:40.713Z,8.94
2023-12-12T08:10:11.635Z,8.98
2023-12-12T08:12:47.280Z,9.25
2023-12-12T08:15:15.087Z,8.90
2023-12-12T08:17:42.984Z,9.18
2023-12-12T08:20:11.662Z,8.87
2023-12-12T08:22:39.754Z,9.12
2023-12-12T08:25:09.029Z,8.82
2023-12-12T08:27:39.831Z,8.80
2023-12-12T08:30:10.307Z,8.76
2023-12-12T08:32:38.960Z,9.00
2023-12-12T08:35:09.260Z,8.98
2023-12-12T08:37:37.783Z,8.79
2023-12-12T08:40:07.741Z,8.79
2023-12-12T08:42:36.775Z,9.27
2023-12-12T08:45:08.088Z,9.54
2023-12-12T08:47:38.351Z,8.77
2023-12-12T08:50:08.258Z,9.01
2023-12-12T08:52:40.641Z,8.98
2023-12-12T08:55:14.632Z,8.88
2023-12-12T08:57:42.971Z,8.95
2023-12-12T09:00:14.540Z,8.75
2023-12-12T09:02:44.228Z,9.02
2023-12-12T09:05:14.808Z,9.25
2023-12-12T09:07:42.991Z,9.16
2023-12-12T09:10:11.290Z,9.06
2023-12-12T09:12:39.274Z,9.00
2023-12-12T09:15:09.157Z,9.37
2023-12-12T09:17:38.763Z,8.60
2023-12-12T09:20:07.860Z,9.19
2023-12-12T09:22:37.348Z,8.88
2023-12-12T09:25:06.030Z,8.87
2023-12-12T09:27:34.410Z,8.84
2023-12-12T09:30:03.131Z,8.95
2023-12-12T09:32:31.237Z,8.91
2023-12-12T09:35:02.016Z,8.77
2023-12-12T09:37:30.480Z,8.75
2023-12-12T09:39:59.053Z,8.72
2023-12-12T09:42:27.707Z,8.82
2023-12-12T09:45:01.589Z,8.40
2023-12-12T09:47:31.038Z,8.55
2023-12-12T09:50:02.419Z,7.84
2023-12-12T09:52:36.761Z,8.58
2023-12-12T09:55:05.365Z,7.82
2023-12-12T09:57:34.061Z,8.31
2023-12-12T10:00:02.768Z,8.56
2023-12-12T10:02:34.592Z,8.25
2023-12-12T10:05:05.195Z,8.72
2023-12-12T10:07:35.376Z,8.41
2023-12-12T10:10:06.425Z,7.88
2023-12-12T10:12:34.237Z,8.03
2023-12-12T10:15:02.064Z,7.65
2023-12-12T10:17:30.007Z,8.11
2023-12-12T10:20:02.005Z,7.89
2023-12-12T10:22:33.304Z,8.75
2023-12-12T10:25:13.343Z,8.88
2023-12-12T10:27:42.594Z,9.06
2023-12-12T10:30:12.544Z,8.91
2023-12-12T10:32:42.539Z,8.92
2023-12-12T10:35:11.200Z,9.05
2023-12-12T10:37:40.939Z,8.62
2023-12-12T10:40:15.962Z,8.70
2023-12-12T10:42:44.697Z,8.67
2023-12-12T10:45:14.581Z,8.75
2023-12-12T10:47:43.438Z,8.48
2023-12-12T10:50:14.638Z,8.13
2023-12-12T10:52:45.663Z,8.27
2023-12-12T10:55:14.658Z,7.90
2023-12-12T10:57:46.469Z,7.97
2023-12-12T11:00:18.036Z,8.13
2023-12-12T11:02:58.943Z,7.65
2023-12-12T11:05:28.925Z,8.18
2023-12-12T11:08:02.915Z,8.35
2023-12-12T11:10:31.304Z,8.32
2023-12-12T11:13:02.415Z,8.01
2023-12-12T11:15:30.604Z,8.51
2023-12-12T11:17:59.360Z,8.67
2023-12-12T11:20:27.556Z,8.44
2023-12-12T11:22:57.099Z,8.59
2023-12-12T11:25:32.727Z,8.75
2023-12-12T11:28:03.169Z,8.60
2023-12-12T11:30:40.677Z,8.37
2023-12-12T11:33:09.117Z,7.94
2023-12-12T11:35:37.164Z,8.46
2023-12-12T11:38:07.661Z,8.20
2023-12-12T11:40:38.783Z,8.21
2023-12-12T11:43:21.594Z,8.63
2023-12-12T11:45:50.106Z,8.59
2023-12-12T11:48:19.278Z,8.43
2023-12-12T11:50:47.656Z,8.56
2023-12-12T11:53:35.649Z,7.56
2023-12-12T11:56:05.890Z,7.69
2023-12-12T11:58:34.827Z,7.83
2023-12-12T12:01:14.150Z,7.76
2023-12-12T12:03:44.610Z,7.43
2023-12-12T12:06:12.957Z,7.65
2023-12-12T12:08:41.353Z,7.84
2023-12-12T12:11:12.436Z,7.49
2023-12-12T12:13:40.974Z,7.54
2023-12-12T12:16:09.445Z,8.19
2023-12-12T12:18:52.922Z,8.30
2023-12-12T12:21:21.905Z,7.99
2023-12-12T12:23:49.883Z,8.18
2023-12-12T12:26:30.252Z,8.56
2023-12-12T12:28:58.240Z,8.72
2023-12-12T12:31:30.818Z,8.53
2023-12-12T12:33:58.856Z,8.81
2023-12-12T12:36:38.641Z,8.35
2023-12-12T12:39:22.172Z,8.38
2023-12-12T12:41:56.407Z,8.57
2023-12-12T12:44:24.836Z,8.64
2023-12-12T12:46:53.670Z,8.48
2023-12-12T12:49:21.672Z,8.24
2023-12-12T12:51:49.701Z,8.51
2023-12-12T12:54:17.933Z,8.92
2023-12-12T12:56:46.842Z,8.28
2023-12-12T12:59:19.900Z,8.50
2023-12-12T13:01:49.081Z,8.49
2023-12-12T13:04:20.121Z,8.19
2023-12-12T13:06:53.429Z,8.16
2023-12-12T13:09:22.757Z,8.22
2023-12-12T13:11:51.006Z,8.29
2023-12-12T13:14:20.900Z,7.74
2023-12-12T13:16:49.027Z,7.38
2023-12-12T13:19:16.959Z,7.10
2023-12-12T13:21:45.293Z,7.81
2023-12-12T13:24:13.301Z,7.96
2023-12-12T13:26:41.261Z,8.25
2023-12-12T13:29:11.227Z,7.96
2023-12-12T13:31:42.928Z,8.03
2023-12-12T13:34:10.984Z,7.63
2023-12-12T13:36:39.497Z,7.43
2023-12-12T13:39:16.036Z,7.97
2023-12-12T13:41:46.351Z,7.89
2023-12-12T13:44:15.256Z,8.04
2023-12-12T13:46:46.523Z,7.95
2023-12-12T13:49:14.852Z,8.47
2023-12-12T13:51:47.495Z,8.65
2023-12-12T13:54:17.409Z,8.45
2023-12-12T13:56:45.555Z,8.29
2023-12-12T13:59:15.603Z,8.27
2023-12-12T14:01:45.331Z,8.18
2023-12-12T14:04:13.863Z,8.42
2023-12-12T14:06:41.940Z,8.49
2023-12-12T14:09:10.958Z,8.97
2023-12-12T14:11:39.435Z,8.18
2023-12-12T14:14:07.424Z,8.16
2023-12-12T14:16:40.668Z,8.63
2023-12-12T14:19:11.285Z,8.19
2023-12-12T14:21:39.624Z,8.19
2023-12-12T14:24:07.706Z,8.14
2023-12-12T14:26:35.587Z,8.31
2023-12-12T14:29:04.434Z,7.92
2023-12-12T14:31:32.526Z,8.05
2023-12-12T14:34:00.524Z,8.23
2023-12-12T14:36:32.086Z,8.47
2023-12-12T14:39:00.500Z,8.23
2023-12-12T14:41:29.988Z,8.63
2023-12-12T14:43:57.979Z,8.45
2023-12-12T14:46:26.248Z,8.26
2023-12-12T14:48:54.215Z,8.54
2023-12-12T14:51:22.810Z,8.14
2023-12-12T14:53:54.373Z,7.96
2023-12-12T14:56:23.984Z,8.12
2023-12-12T14:58:52.100Z,8.30
2023-12-12T15:01:20.756Z,7.77
2023-12-12T15:03:48.699Z,7.99
2023-12-12T15:06:17.130Z,8.35
2023-12-12T15:08:46.349Z,8.21
2023-12-12T15:11:15.772Z,8.07
2023-12-12T15:13:44.006Z,7.63
2023-12-12T15:16:13.066Z,8.16
2023-12-12T15:18:42.782Z,7.82
2023-12-12T15:21:14.283Z,8.04
2023-12-12T15:23:46.657Z,8.44
2023-12-12T15:26:16.574Z,7.94
2023-12-12T15:28:44.562Z,7.32
2023-12-12T15:31:13.155Z,8.04
2023-12-12T15:33:43.510Z,8.42
2023-12-12T15:36:12.058Z,8.26
2023-12-12T15:38:39.871Z,7.82
2023-12-12T15:41:08.045Z,7.42
2023-12-12T15:43:40.687Z,8.12
2023-12-12T15:46:08.970Z,8.01
2023-12-12T15:48:37.886Z,8.64
2023-12-12T15:51:43.295Z,8.61
2023-12-12T15:54:13.829Z,8.36
2023-12-12T15:56:43.181Z,8.72
2023-12-12T15:59:12.350Z,8.34
2023-12-12T16:01:40.452Z,8.44
2023-12-12T16:04:09.048Z,8.41
2023-12-12T16:06:40.008Z,8.68
2023-12-12T16:09:08.009Z,8.99
2023-12-12T16:11:36.133Z,8.11
2023-12-12T16:14:05.961Z,8.61
2023-12-12T16:16:35.196Z,7.82
2023-12-12T16:19:04.072Z,8.00
2023-12-12T16:21:33.492Z,8.04
2023-12-12T16:24:04.049Z,8.37
2023-12-12T16:26:33.990Z,7.81
2023-12-12T16:29:15.839Z,8.25
2023-12-12T16:31:50.137Z,8.34
2023-12-12T16:34:18.027Z,8.15
2023-12-12T16:36:52.224Z,7.68
2023-12-12T16:39:28.837Z,8.30
2023-12-12T16:41:59.811Z,8.02
2023-12-12T16:44:26.999Z,8.20
2023-12-12T16:46:58.895Z,8.53
2023-12-12T16:49:31.805Z,8.24
2023-12-12T16:52:15.137Z,7.64
2023-12-12T16:54:44.044Z,8.07
2023-12-12T16:57:12.399Z,8.00
2023-12-12T16:59:50.887Z,8.11
2023-12-12T17:02:22.577Z,8.05
2023-12-12T17:05:01.423Z,7.64
2023-12-12T17:07:29.784Z,7.53
2023-12-12T17:09:59.723Z,8.23
2023-12-12T17:12:28.318Z,7.77
2023-12-12T17:14:59.605Z,7.92
2023-12-12T17:17:31.720Z,7.73
2023-12-12T17:20:02.750Z,8.00
2023-12-12T17:22:32.486Z,8.01
2023-12-12T17:25:01.209Z,8.28
2023-12-12T17:27:29.952Z,7.92
2023-12-12T17:33:10.996Z,7.98
2023-12-12T17:35:49.926Z,7.93
2023-12-12T17:38:18.876Z,7.67
2023-12-12T17:40:51.108Z,7.59
2023-12-12T17:43:21.655Z,8.00
2023-12-12T17:45:53.538Z,8.09
2023-12-12T17:48:29.442Z,7.97
2023-12-12T17:51:16.323Z,7.82
2023-12-12T17:53:45.366Z,8.03
2023-12-12T17:56:16.245Z,7.26
2023-12-12T17:58:47.101Z,8.60
2023-12-12T18:01:26.264Z,8.29
2023-12-12T18:03:58.880Z,7.98
2023-12-12T18:06:28.163Z,8.07
2023-12-12T18:08:59.188Z,7.47
2023-12-12T18:11:27.750Z,7.82
2023-12-12T18:14:08.914Z,7.90
2023-12-12T18:16:41.178Z,7.64
2023-12-12T18:19:11.873Z,8.18
2023-12-12T18:22:12.226Z,8.23
2023-12-12T18:24:41.871Z,8.39
2023-12-12T18:27:12.732Z,8.03
2023-12-12T18:29:42.638Z,8.28
2023-12-12T18:32:51.816Z,8.25
2023-12-12T18:35:43.002Z,7.78
2023-12-12T18:38:11.877Z,8.31
2023-12-12T18:40:40.674Z,8.45
2023-12-12T18:43:15.256Z,8.28
2023-12-12T18:45:51.454Z,7.70
2023-12-12T18:51:32.350Z,7.50
2023-12-12T18:54:07.449Z,7.76
2023-12-12T18:56:36.132Z,7.54
2023-12-12T18:59:09.275Z,8.01
2023-12-12T19:01:39.148Z,8.05
2023-12-12T19:04:29.318Z,8.34
2023-12-12T19:07:02.401Z,8.38
2023-12-12T19:10:16.402Z,8.23
2023-12-12T19:12:47.962Z,8.07
2023-12-12T19:15:20.138Z,7.72
2023-12-12T19:17:47.957Z,7.69
2023-12-12T19:20:17.122Z,7.86
2023-12-12T19:22:48.869Z,7.66
2023-12-12T19:25:15.641Z,7.66
2023-12-12T19:27:45.128Z,7.97
2023-12-12T19:30:13.534Z,7.55
2023-12-12T19:32:47.450Z,7.85
2023-12-12T19:35:15.955Z,7.82
2023-12-12T19:37:50.361Z,8.07
2023-12-12T19:40:21.643Z,8.01
2023-12-12T19:42:56.053Z,8.11
2023-12-12T19:45:26.295Z,8.52
2023-12-12T19:47:55.294Z,7.76
2023-12-12T19:50:25.046Z,7.94
2023-12-12T19:52:56.824Z,8.28
2023-12-12T19:55:26.526Z,8.34
2023-12-12T19:57:55.877Z,8.18
2023-12-12T20:00:27.134Z,7.94
2023-12-12T20:02:55.364Z,7.38
2023-12-12T20:05:24.152Z,7.72
2023-12-12T20:07:53.251Z,7.67
2023-12-12T20:10:22.497Z,8.09
2023-12-12T20:12:54.790Z,8.21
2023-12-12T20:15:24.133Z,7.88
2023-12-12T20:17:55.780Z,7.57
2023-12-12T20:20:24.610Z,7.60
2023-12-12T20:22:54.915Z,7.71
2023-12-12T20:25:26.126Z,7.82
2023-12-12T20:28:01.401Z,8.01
2023-12-12T20:30:31.898Z,7.29
2023-12-12T20:33:01.984Z,7.43
2023-12-12T20:35:30.268Z,7.06
2023-12-12T20:38:04.520Z,7.59
2023-12-12T20:40:32.641Z,7.51
2023-12-12T20:43:04.005Z,7.76
2023-12-12T20:45:34.581Z,7.56
2023-12-12T20:48:03.211Z,7.75
2023-12-12T20:50:34.049Z,7.40
2023-12-12T20:53:03.374Z,8.03
2023-12-12T20:55:33.517Z,7.66
2023-12-12T20:58:05.429Z,7.86
2023-12-12T21:00:36.953Z,8.29
2023-12-12T21:03:05.023Z,7.96
2023-12-12T21:05:33.972Z,8.01
2023-12-12T21:08:05.524Z,8.17
2023-12-12T21:10:34.881Z,8.05
2023-12-12T21:13:05.801Z,8.46
2023-12-12T21:15:37.285Z,8.07
2023-12-12T21:18:07.465Z,7.91
2023-12-12T21:20:40.144Z,8.22
2023-12-12T21:23:12.827Z,8.22
2023-12-12T21:25:45.902Z,8.30
2023-12-12T21:28:15.846Z,8.40
2023-12-12T21:30:46.505Z,8.11
2023-12-12T21:33:17.045Z,8.19
2023-12-12T21:35:46.210Z,8.33
2023-12-12T21:38:17.433Z,7.64
2023-12-12T21:40:45.697Z,8.21
2023-12-12T21:43:13.992Z,8.47
2023-12-12T21:45:45.846Z,8.27
2023-12-12T21:48:14.082Z,8.09
2023-12-12T21:50:44.676Z,8.29
2023-12-12T21:53:13.066Z,8.31
2023-12-12T21:55:42.035Z,8.41
2023-12-12T21:58:11.836Z,8.32
2023-12-12T22:00:46.025Z,7.71
2023-12-12T22:03:26.478Z,7.65
2023-12-12T22:05:56.442Z,8.46
2023-12-12T22:08:30.177Z,7.88
2023-12-12T22:10:58.530Z,8.12
2023-12-12T22:13:37.961Z,8.36
2023-12-12T22:16:08.119Z,8.39
2023-12-12T22:18:40.148Z,8.41
2023-12-12T22:21:08.917Z,8.03
2023-12-12T22:23:41.008Z,8.48
2023-12-12T22:26:10.541Z,8.49
2023-12-12T22:28:49.283Z,8.73
2023-12-12T22:31:18.460Z,8.46
2023-12-12T22:33:51.950Z,8.10
2023-12-12T22:36:22.428Z,7.57
2023-12-12T22:38:59.329Z,8.19
2023-12-12T22:41:30.487Z,8.02
2023-12-12T22:44:03.672Z,7.85
2023-12-12T22:46:33.955Z,8.46
2023-12-12T22:49:14.229Z,8.44
2023-12-12T22:51:52.955Z,7.98
2023-12-12T22:54:23.192Z,8.28
2023-12-12T22:56:55.012Z,8.23
2023-12-12T22:59:35.513Z,8.02
2023-12-12T23:02:04.829Z,8.39
2023-12-12T23:04:38.920Z,8.69
2023-12-12T23:07:07.912Z,8.54
2023-12-12T23:09:36.122Z,8.15
2023-12-12T23:12:05.695Z,8.38
2023-12-12T23:14:36.435Z,8.05
2023-12-12T23:17:07.270Z,8.03
2023-12-12T23:19:37.517Z,7.86
2023-12-12T23:22:06.758Z,7.74
2023-12-12T23:24:37.377Z,7.96
2023-12-12T23:27:05.317Z,7.86
2023-12-12T23:29:34.810Z,7.68
2023-12-12T23:32:04.133Z,8.00
2023-12-12T23:34:33.395Z,8.21
2023-12-12T23:37:05.540Z,8.44
2023-12-12T23:39:34.016Z,8.19
2023-12-12T23:42:03.334Z,8.01
2023-12-12T23:44:31.947Z,7.91
2023-12-12T23:47:01.552Z,7.98
2023-12-12T23:49:32.977Z,7.60
2023-12-12T23:52:06.054Z,8.19
2023-12-12T23:54:36.409Z,7.73
2023-12-12T23:57:05.236Z,7.91
2023-12-12T23:59:45.310Z,7.82
